SUMUSUSO

Guest
Details From SUMU - Montevideo Carrasco Intl
To SUSO - Nueva Hesperides Intl
Flight Number -
Tags Decoded
Created
Modified
Stats Distance 227 nm / 420 km
Max Altitude 0 ft / 0 m
Waypoints 2
Social Downloads 1
Likes 0
Share VATSIM

Download

Looking for another format? Having issues loading an existing format? Contact us
Advertisement - Login to hide

Notes

Decoded

Route

SUMU SUSO

ID Type Via Altitude Latitude Longitude Leg Dist Tot Dist Heading (true) Name
O SUMU APT - 0 ft / 0 m -34.83742˚ -56.03572˚ - 0 nm - -
O SUSO APT - 0 ft / 0 m -31.43078˚ -57.98914˚ 226 nm 226 nm 334° / 335° -

Altitude Profile

Advertisement - Login to hide

Weather


0- 5 10 15 20 25 30 35+ Temperature / ° C

Clouds and Precipitation
Forecast for 2017-12-18 18:00 UTC. Updated an hour ago

Ground ~20,000 ft ~40,000 ft Winds

SUMU

Details ICAO SUMU (MVD)
Name Montevideo Carrasco Intl
Region Uruguay
Timezone America/Montevideo (UTC-3.0)
Stats Elevation 105 ft / 32 m (AMSL)
Location -34.834888° -56.027727°
Runways 3
Magnetic Variation 10.822° W

METAR

SUMU 181600Z 14006KT CAVOK 19/08 Q1024 NOSIG

Decode

TAF

TAF SUMU 181130Z 1812/1912 03010KT CAVOK TX22/1818Z TN12/1909Z BECMG 1814/1818 12015G25KT 9999 SCT025 BECMG 1900/1902 04015KT

Decode

Departure Runways

ID Width Length Bearing (true) Bearing (mag) Surface Threshold Offset Overrun Length
01 148 ft / 45 m 7,406 ft / 2,257 m 359.19° 10.01° Asphalt 300 ft / 91 m 195 ft / 59 m
06 148 ft / 45 m 10,497 ft / 3,199 m 53.24° 64.06° Asphalt 1,150 ft / 351 m 500 ft / 152 m
10 148 ft / 45 m 5,578 ft / 1,700 m 90.77° 101.59° Concrete 200 ft / 61 m 0 ft / 0 m
19 148 ft / 45 m 7,406 ft / 2,257 m 179.19° 190.01° Asphalt 300 ft / 91 m 190 ft / 58 m
24 148 ft / 45 m 10,497 ft / 3,199 m 233.23° 244.05° Asphalt 490 ft / 149 m 0 ft / 0 m
28 148 ft / 45 m 5,578 ft / 1,700 m 270.76° 281.58° Concrete 200 ft / 61 m 0 ft / 0 m

SUSO

Details ICAO SUSO (STY)
Name NUEVA HESPERIDES INTL
Region Uruguay
Timezone America/Montevideo (UTC-3.0)
Stats Elevation 187 ft / 57 m (AMSL)
Location -31.435375° -57.985449°
Runways 2
Magnetic Variation 11.082° W

METAR

SUSO 181600Z 09006KT 9999 FEW033 23/11 Q1019

Decode

TAF

TAF SUSO 181130Z 1812/1912 14015KT CAVOK TX25/1818Z TN13/1909Z TEMPO 1815/1821 09015G25KT

Decode

Destination Runways

ID Width Length Bearing (true) Bearing (mag) Surface Threshold Offset Overrun Length
05 148 ft / 45 m 5,215 ft / 1,589 m 38.75° 49.83° Asphalt 0 ft / 0 m 0 ft / 0 m
13 164 ft / 50 m 2,457 ft / 749 m 116.35° 127.43° Grass 0 ft / 0 m 0 ft / 0 m
23 148 ft / 45 m 5,215 ft / 1,589 m 218.75° 229.83° Asphalt 0 ft / 0 m 0 ft / 0 m
31 164 ft / 50 m 2,457 ft / 749 m 296.35° 307.43° Grass 0 ft / 0 m 0 ft / 0 m

Popular Alternatives